Time;durP1;ratioP1;P1;durP2;ratioP2;P2;SDS_P1;SDS_P2;PMS_P1;PMS_P2;Temp;Humidity;BMP_temperature;BMP_pressure;BME280_temperature;BME280_humidity;BME280_pressure;Samples;Min_cycle;Max_cycle;Signal;HPM_P1;HPM_P2
2022/09/19 00:01:47;;;;;;;12.48;5.80;;;8.80;99.90;;;;;;5039620;28;20052;-69
2022/09/19 00:04:19;;;;;;;17.98;5.93;;;8.70;99.90;;;;;;5020450;28;20091;-68
2022/09/19 00:06:49;;;;;;;13.57;6.05;;;8.70;99.90;;;;;;5025186;28;20385;-69
2022/09/19 00:09:20;;;;;;;15.27;6.07;;;8.70;99.90;;;;;;5021046;28;20045;-70
2022/09/19 00:11:48;;;;;;;14.13;5.60;;;8.80;99.90;;;;;;5040598;28;20043;-69
2022/09/19 00:14:18;;;;;;;9.75;5.65;;;8.70;99.90;;;;;;5041836;28;20341;-69
2022/09/19 00:16:46;;;;;;;12.95;7.13;;;8.70;99.90;;;;;;5024767;28;20055;-68
2022/09/19 00:19:16;;;;;;;18.55;6.88;;;8.70;99.90;;;;;;5045688;28;20456;-69
2022/09/19 00:21:45;;;;;;;22.10;9.27;;;8.70;99.90;;;;;;5020088;28;20037;-70
2022/09/19 00:27:04;;;;;;;16.80;7.60;;;8.70;99.90;;;;;;5048528;28;20043;-70
2022/09/19 00:29:34;;;;;;;18.70;8.15;;;8.70;99.90;;;;;;5019843;28;20071;-70
2022/09/19 00:32:02;;;;;;;20.40;8.68;;;8.70;99.90;;;;;;5035853;28;20036;-70
2022/09/19 00:34:31;;;;;;;18.55;7.07;;;8.70;99.90;;;;;;5037792;28;20050;-70
2022/09/19 00:36:58;;;;;;;15.02;7.85;;;8.70;99.90;;;;;;5034075;28;20031;-70
2022/09/19 00:39:25;;;;;;;19.95;7.88;;;8.70;99.90;;;;;;5046494;28;20221;-69
2022/09/19 00:41:52;;;;;;;24.90;9.18;;;8.70;99.90;;;;;;5055215;28;20118;-68
2022/09/19 00:44:21;;;;;;;29.17;10.55;;;8.80;99.90;;;;;;5053776;28;20045;-68
2022/09/19 00:46:52;;;;;;;27.30;10.27;;;8.80;99.90;;;;;;5034085;28;20295;-70
2022/09/19 00:49:20;;;;;;;31.60;10.65;;;8.80;99.90;;;;;;5037027;28;20402;-68
2022/09/19 00:51:50;;;;;;;26.63;10.50;;;8.80;99.90;;;;;;5022650;28;20059;-69
2022/09/19 00:54:20;;;;;;;25.65;11.45;;;8.80;99.90;;;;;;5039260;28;20238;-69
2022/09/19 00:56:51;;;;;;;28.55;11.88;;;8.80;99.90;;;;;;5017821;28;20052;-69
2022/09/19 00:59:20;;;;;;;29.33;11.27;;;8.80;99.90;;;;;;5017174;28;20045;-69
2022/09/19 01:01:48;;;;;;;32.15;11.27;;;8.80;99.90;;;;;;5019614;28;20248;-68
2022/09/19 01:04:21;;;;;;;27.88;12.10;;;8.80;99.90;;;;;;5032484;28;20041;-69
2022/09/19 01:06:52;;;;;;;29.60;11.48;;;8.80;99.90;;;;;;5019275;28;20042;-69
2022/09/19 01:09:38;;;;;;;36.25;11.50;;;8.80;99.90;;;;;;5032290;28;20277;-68
2022/09/19 01:12:47;;;;;;;37.65;12.80;;;8.80;99.90;;;;;;5012530;28;20132;-69
2022/09/19 01:15:14;;;;;;;43.10;12.90;;;8.80;99.90;;;;;;5024520;28;20056;-70
2022/09/19 01:17:53;;;;;;;45.72;12.18;;;8.80;99.90;;;;;;5010130;28;20052;-70
2022/09/19 01:20:26;;;;;;;37.95;13.00;;;8.80;99.90;;;;;;5032245;28;20073;-68
2022/09/19 01:23:20;;;;;;;48.42;13.80;;;8.80;99.90;;;;;;5013355;28;20048;-70
2022/09/19 01:26:02;;;;;;;45.15;14.13;;;8.90;99.90;;;;;;5008258;28;20108;-69
2022/09/19 01:28:41;;;;;;;35.08;14.43;;;8.90;99.90;;;;;;5001944;28;20515;-70
2022/09/19 01:31:26;;;;;;;43.58;12.98;;;8.80;99.90;;;;;;5016439;28;20095;-70
2022/09/19 01:34:11;;;;;;;48.38;13.52;;;8.90;99.90;;;;;;5019280;28;20497;-69
2022/09/19 01:36:46;;;;;;;;;;;8.90;99.90;;;;;;5020779;28;20052;-69
2022/09/19 01:39:18;;;;;;;53.22;15.05;;;8.90;99.90;;;;;;5016474;28;19982;-70
2022/09/19 01:41:50;;;;;;;47.67;15.45;;;8.90;99.90;;;;;;5038981;28;20117;-69
2022/09/19 01:44:23;;;;;;;44.58;14.07;;;9.00;99.90;;;;;;5077154;23;20061;-69
2022/09/19 01:47:17;;;;;;;52.72;15.95;;;9.00;99.90;;;;;;4994547;28;20038;-69
2022/09/19 01:50:15;;;;;;;44.10;15.63;;;8.90;99.90;;;;;;4988266;28;20080;-69
2022/09/19 01:53:13;;;;;;;38.97;14.30;;;9.00;99.90;;;;;;5001261;28;20342;-69
2022/09/19 01:56:32;;;;;;;39.13;13.75;;;8.90;99.90;;;;;;4963456;28;20050;-69
2022/09/19 01:59:22;;;;;;;47.50;15.88;;;8.90;99.90;;;;;;4978052;28;20151;-68
2022/09/19 02:01:54;;;;;;;37.10;13.07;;;9.00;99.90;;;;;;4974685;28;20597;-70
2022/09/19 02:04:33;;;;;;;41.60;15.07;;;9.00;99.90;;;;;;4970524;28;20129;-68
2022/09/19 02:07:27;;;;;;;44.92;15.32;;;9.00;99.90;;;;;;4972856;28;20043;-68
2022/09/19 02:10:01;;;;;;;50.70;15.68;;;9.00;99.90;;;;;;4975041;28;20061;-68
2022/09/19 02:12:37;;;;;;;53.85;13.88;;;9.00;99.90;;;;;;4972430;28;20126;-68
2022/09/19 02:15:13;;;;;;;37.00;15.20;;;9.00;99.90;;;;;;4967005;28;20057;-68
2022/09/19 02:17:50;;;;;;;40.70;14.38;;;9.10;99.90;;;;;;4977763;28;20042;-68
2022/09/19 02:20:27;;;;;;;33.58;13.70;;;9.10;99.90;;;;;;4975669;28;20145;-68
2022/09/19 02:23:12;;;;;;;45.08;13.63;;;9.10;99.90;;;;;;4993035;28;20132;-69
2022/09/19 02:25:41;;;;;;;52.00;15.43;;;9.10;99.90;;;;;;4986164;28;20488;-68
2022/09/19 02:28:17;;;;;;;46.35;16.08;;;9.00;99.90;;;;;;4989876;28;20523;-69
2022/09/19 02:30:45;;;;;;;35.53;14.85;;;9.00;99.90;;;;;;4986631;28;20246;-68
2022/09/19 02:33:12;;;;;;;39.50;13.85;;;9.10;99.90;;;;;;4972016;28;20051;-69
2022/09/19 02:35:59;;;;;;;38.55;14.25;;;9.10;99.90;;;;;;4971531;28;20543;-68
2022/09/19 02:38:39;;;;;;;36.00;12.82;;;9.00;99.90;;;;;;4971874;28;20053;-69
2022/09/19 02:41:17;;;;;;;35.70;13.00;;;9.00;99.90;;;;;;4973791;28;20069;-68
2022/09/19 02:44:00;;;;;;;38.50;13.18;;;9.00;99.90;;;;;;4955227;28;20053;-68
2022/09/19 02:46:40;;;;;;;32.15;12.82;;;9.00;99.90;;;;;;4984910;28;20056;-68
2022/09/19 02:49:16;;;;;;;34.95;14.35;;;9.10;99.90;;;;;;4973478;28;20282;-68
2022/09/19 02:51:46;;;;;;;;;;;9.10;99.90;;;;;;4982775;28;20084;-68
2022/09/19 02:54:21;;;;;;;37.60;14.13;;;9.10;99.90;;;;;;4967028;28;19976;-68
2022/09/19 02:56:49;;;;;;;;;;;9.10;99.90;;;;;;4949833;28;20121;-68
2022/09/19 02:59:24;;;;;;;44.25;14.65;;;9.00;99.90;;;;;;4988247;28;19929;-68
2022/09/19 03:02:05;;;;;;;44.00;14.40;;;9.10;99.90;;;;;;4967526;28;20205;-68
2022/09/19 03:04:40;;;;;;;48.25;14.35;;;9.10;99.90;;;;;;4982787;28;20303;-69
2022/09/19 03:07:17;;;;;;;64.43;15.60;;;9.10;99.90;;;;;;4987449;28;20049;-68
2022/09/19 03:10:01;;;;;;;48.38;14.98;;;9.10;99.90;;;;;;4983315;28;20046;-68
2022/09/19 03:12:57;;;;;;;56.08;16.05;;;9.10;99.90;;;;;;4963934;28;20547;-71
2022/09/19 03:15:36;;;;;;;49.40;16.55;;;9.10;99.90;;;;;;4970172;28;20049;-70
2022/09/19 03:18:06;;;;;;;50.50;14.75;;;9.10;99.90;;;;;;4973489;28;20065;-69
2022/09/19 03:20:37;;;;;;;74.25;16.58;;;9.20;99.90;;;;;;4992610;28;20054;-69
2022/09/19 03:23:06;;;;;;;80.03;17.08;;;9.20;99.90;;;;;;4976097;28;20259;-69
2022/09/19 03:25:33;;;;;;;58.88;18.38;;;9.20;99.90;;;;;;4985222;28;20042;-69
2022/09/19 03:28:00;;;;;;;103.70;19.75;;;9.20;99.90;;;;;;4968385;28;20065;-68
2022/09/19 03:30:29;;;;;;;77.53;18.75;;;9.20;99.90;;;;;;4970167;28;20050;-69
2022/09/19 03:32:57;;;;;;;62.63;17.00;;;9.20;99.90;;;;;;4987817;28;20133;-69
2022/09/19 03:35:24;;;;;;;64.78;17.77;;;9.20;99.90;;;;;;4983002;28;20047;-68
2022/09/19 03:37:53;;;;;;;48.90;17.23;;;9.20;99.90;;;;;;4975110;28;20042;-69
2022/09/19 03:40:22;;;;;;;50.33;16.25;;;9.20;99.90;;;;;;4971963;28;20042;-69
2022/09/19 03:42:52;;;;;;;64.03;17.40;;;9.30;99.90;;;;;;4979164;28;20125;-69
2022/09/19 03:45:21;;;;;;;49.33;18.00;;;9.30;99.90;;;;;;4970930;28;20050;-69
2022/09/19 03:47:48;;;;;;;43.67;16.30;;;9.20;99.90;;;;;;4969245;28;20040;-68
2022/09/19 03:50:15;;;;;;;48.92;16.60;;;9.30;99.90;;;;;;4975279;28;20084;-68
2022/09/19 03:52:50;;;;;;;52.55;16.02;;;9.20;99.90;;;;;;4962609;28;20046;-69
2022/09/19 03:55:18;;;;;;;48.13;17.33;;;9.20;99.90;;;;;;4974270;28;20058;-68
2022/09/19 03:57:46;;;;;;;52.83;16.55;;;9.30;99.90;;;;;;4979061;28;20052;-68
2022/09/19 04:00:16;;;;;;;51.45;17.40;;;9.30;99.90;;;;;;4976706;28;20984;-68
2022/09/19 04:02:43;;;;;;;61.67;17.38;;;9.30;99.90;;;;;;4977516;28;20195;-69
2022/09/19 04:05:13;;;;;;;72.60;19.58;;;9.40;99.90;;;;;;4977750;28;20596;-69
2022/09/19 04:07:40;;;;;;;60.53;18.17;;;9.30;99.90;;;;;;4991457;28;20049;-69
2022/09/19 04:10:07;;;;;;;68.40;19.98;;;9.30;99.90;;;;;;4979005;28;20428;-69
2022/09/19 04:12:38;;;;;;;76.20;17.00;;;9.30;99.90;;;;;;4979937;28;20068;-70
2022/09/19 04:15:05;;;;;;;50.38;16.90;;;9.30;99.90;;;;;;4983027;28;20580;-69
2022/09/19 04:17:32;;;;;;;46.03;15.48;;;9.30;99.90;;;;;;4990703;28;20475;-69
2022/09/19 04:20:05;;;;;;;58.13;16.27;;;9.30;99.90;;;;;;4980542;28;20038;-69
2022/09/19 04:22:40;;;;;;;55.88;16.33;;;9.30;99.90;;;;;;4981559;28;20058;-69
2022/09/19 04:25:22;;;;;;;65.55;18.02;;;9.30;99.90;;;;;;4972791;28;20039;-68
2022/09/19 04:28:08;;;;;;;55.47;16.70;;;9.30;99.90;;;;;;4992131;28;20458;-69
2022/09/19 04:30:37;;;;;;;65.35;18.40;;;9.30;99.90;;;;;;4978594;28;20052;-69
2022/09/19 04:33:06;;;;;;;72.75;22.17;;;9.30;99.90;;;;;;4980451;28;20480;-68
2022/09/19 04:35:35;;;;;;;68.47;17.52;;;9.30;99.90;;;;;;4975143;28;20428;-69
2022/09/19 04:38:07;;;;;;;63.13;18.35;;;9.30;99.90;;;;;;4979352;28;20042;-69
2022/09/19 04:40:43;;;;;;;53.70;16.50;;;9.30;99.90;;;;;;4979754;28;20493;-69
2022/09/19 04:43:12;;;;;;;56.80;17.38;;;9.30;99.90;;;;;;4993864;28;20042;-69
2022/09/19 04:45:48;;;;;;;65.15;18.70;;;9.30;99.90;;;;;;4988129;28;20145;-69
2022/09/19 04:48:24;;;;;;;58.92;18.98;;;9.30;99.90;;;;;;4973592;28;20057;-69
2022/09/19 04:50:52;;;;;;;74.10;18.35;;;9.30;99.90;;;;;;4983062;28;20065;-69
2022/09/19 04:53:23;;;;;;;63.47;17.70;;;9.20;99.90;;;;;;4970976;28;20335;-69
2022/09/19 04:55:54;;;;;;;71.43;18.73;;;9.20;99.90;;;;;;4964437;28;20373;-70
2022/09/19 04:58:22;;;;;;;70.10;17.95;;;9.30;99.90;;;;;;4977217;28;20233;-70
2022/09/19 05:00:51;;;;;;;77.53;18.45;;;9.20;99.90;;;;;;4977674;28;20222;-70
2022/09/19 05:03:19;;;;;;;88.63;19.70;;;9.20;99.90;;;;;;4977515;28;20054;-69
2022/09/19 05:05:50;;;;;;;99.78;18.38;;;9.20;99.90;;;;;;4990949;28;20528;-69
2022/09/19 05:08:30;;;;;;;124.07;19.55;;;9.20;99.90;;;;;;4995237;28;20072;-70
2022/09/19 05:11:05;;;;;;;127.55;19.23;;;9.30;99.90;;;;;;4979694;28;20101;-70
2022/09/19 05:13:34;;;;;;;115.60;20.73;;;9.30;99.90;;;;;;4999729;28;20397;-70
2022/09/19 05:16:01;;;;;;;174.82;22.27;;;9.30;99.90;;;;;;4979552;28;20041;-69
2022/09/19 05:18:37;;;;;;;133.18;21.42;;;9.30;99.90;;;;;;4977051;28;20302;-70
2022/09/19 05:21:08;;;;;;;174.57;24.50;;;9.30;99.90;;;;;;4977801;28;20046;-70
2022/09/19 05:23:36;;;;;;;82.03;17.70;;;9.30;99.90;;;;;;4984811;28;20142;-69
2022/09/19 05:26:16;;;;;;;116.93;20.25;;;9.20;99.90;;;;;;4992472;28;20645;-69
2022/09/19 05:28:48;;;;;;;153.25;23.15;;;9.20;99.90;;;;;;4972418;28;20042;-69
2022/09/19 05:31:19;;;;;;;86.10;18.55;;;9.30;99.90;;;;;;4986529;28;20429;-70
2022/09/19 05:33:56;;;;;;;125.03;21.75;;;9.30;99.90;;;;;;4970555;28;20054;-70
2022/09/19 05:36:27;;;;;;;90.47;19.02;;;9.30;99.90;;;;;;4960539;28;20318;-70
2022/09/19 05:39:13;;;;;;;111.50;21.75;;;9.30;99.90;;;;;;4991705;28;20120;-70
2022/09/19 05:41:49;;;;;;;121.25;20.95;;;9.30;99.90;;;;;;4992073;28;20052;-69
2022/09/19 05:44:17;;;;;;;104.78;18.25;;;9.30;99.90;;;;;;4995090;28;20064;-69
2022/09/19 05:46:52;;;;;;;98.60;18.83;;;9.20;99.90;;;;;;4969005;28;20095;-69
2022/09/19 05:49:19;;;;;;;140.05;21.48;;;9.30;99.90;;;;;;4966857;28;20146;-69
2022/09/19 05:51:46;;;;;;;155.40;22.08;;;9.30;99.90;;;;;;4976643;28;20281;-70
2022/09/19 05:54:18;;;;;;;182.40;26.83;;;9.30;99.90;;;;;;4946845;28;20443;-69
2022/09/19 05:57:05;;;;;;;140.82;23.63;;;9.30;99.90;;;;;;4989189;28;20358;-70
2022/09/19 05:59:32;;;;;;;216.25;25.17;;;9.40;99.90;;;;;;4973171;28;20080;-70
2022/09/19 06:02:01;;;;;;;191.68;24.40;;;9.40;99.90;;;;;;4977485;28;20137;-69
2022/09/19 06:04:38;;;;;;;208.20;27.85;;;9.40;99.90;;;;;;4967689;28;21062;-70
2022/09/19 06:07:09;;;;;;;201.10;24.67;;;9.40;99.90;;;;;;4972080;28;20044;-70
2022/09/19 06:09:35;;;;;;;104.38;21.17;;;9.40;99.90;;;;;;4975513;28;20030;-70
2022/09/19 06:12:02;;;;;;;139.60;23.90;;;9.40;99.90;;;;;;4970557;28;20034;-70
2022/09/19 06:14:31;;;;;;;198.15;24.73;;;9.40;99.90;;;;;;4987981;28;20735;-70
2022/09/19 06:17:01;;;;;;;178.52;22.23;;;9.40;99.90;;;;;;4976827;28;20161;-70
2022/09/19 06:19:49;;;;;;;179.05;24.48;;;9.50;99.90;;;;;;4976768;28;20388;-70
2022/09/19 06:22:39;;;;;;;98.28;20.60;;;9.50;99.90;;;;;;4978264;28;20543;-70
2022/09/19 06:25:06;;;;;;;92.25;19.80;;;9.40;99.90;;;;;;4975676;28;20060;-70
2022/09/19 06:27:33;;;;;;;92.45;19.73;;;9.50;99.90;;;;;;4988597;28;20244;-70
2022/09/19 06:30:01;;;;;;;90.30;19.05;;;9.40;99.90;;;;;;4976545;28;20038;-69
2022/09/19 06:32:36;;;;;;;;;;;9.40;99.90;;;;;;4982857;28;20549;-70
2022/09/19 06:35:13;;;;;;;75.38;17.75;;;9.40;99.90;;;;;;4974562;28;19925;-70
2022/09/19 06:37:40;;;;;;;89.15;20.45;;;9.40;99.90;;;;;;4967562;28;20053;-69
2022/09/19 06:40:10;;;;;;;75.43;19.48;;;9.40;99.90;;;;;;4985396;28;20436;-70
2022/09/19 06:42:46;;;;;;;91.30;17.15;;;9.40;99.90;;;;;;4975834;28;20547;-70
2022/09/19 06:45:32;;;;;;;;;;;9.50;99.90;;;;;;4989737;28;20068;-69
2022/09/19 06:48:13;;;;;;;58.00;15.80;;;9.50;99.90;;;;;;4972290;28;20835;-70
2022/09/19 06:50:48;;;;;;;53.35;13.32;;;9.60;99.90;;;;;;4987756;28;20167;-70
2022/09/19 06:53:18;;;;;;;41.47;11.70;;;9.60;99.90;;;;;;4973512;28;20079;-70
2022/09/19 06:55:47;;;;;;;49.40;12.95;;;9.70;99.90;;;;;;4976253;28;20481;-70
2022/09/19 06:58:21;;;;;;;39.67;11.40;;;9.80;99.90;;;;;;4972798;28;20038;-70
2022/09/19 07:00:49;;;;;;;44.70;11.52;;;9.80;99.90;;;;;;4973753;28;20398;-70
2022/09/19 07:03:21;;;;;;;51.05;12.05;;;9.80;99.90;;;;;;4955439;28;20060;-70
2022/09/19 07:05:59;;;;;;;45.83;11.20;;;9.80;99.90;;;;;;4988676;28;20351;-70
2022/09/19 07:08:33;;;;;;;44.95;10.35;;;9.90;99.90;;;;;;4970488;28;20042;-71
2022/09/19 07:11:01;;;;;;;41.95;11.38;;;10.00;99.90;;;;;;4972453;28;20030;-71
2022/09/19 07:13:31;;;;;;;41.17;10.02;;;10.00;99.90;;;;;;4971143;28;20044;-71
2022/09/19 07:16:03;;;;;;;37.15;11.55;;;10.00;99.90;;;;;;4968811;28;20096;-71
2022/09/19 07:18:35;;;;;;;41.67;12.23;;;10.00;99.90;;;;;;4974058;28;20222;-71
2022/09/19 07:21:21;;;;;;;43.00;11.80;;;10.00;99.90;;;;;;4988476;28;20102;-70
2022/09/19 07:23:54;;;;;;;55.28;14.10;;;10.00;99.90;;;;;;4976763;28;20045;-71
2022/09/19 07:26:42;;;;;;;58.88;13.48;;;10.10;99.90;;;;;;4971130;28;20181;-71
2022/09/19 07:29:15;;;;;;;63.28;13.32;;;10.10;99.90;;;;;;4972568;28;20400;-72
2022/09/19 07:31:42;;;;;;;56.33;14.88;;;10.10;99.90;;;;;;4966420;28;20069;-72
2022/09/19 07:34:09;;;;;;;64.43;14.85;;;10.10;99.90;;;;;;4954833;28;20536;-72
2022/09/19 07:36:44;;;;;;;87.90;17.42;;;10.10;99.90;;;;;;4964573;28;20921;-72
2022/09/19 07:39:11;;;;;;;140.75;23.23;;;10.10;99.90;;;;;;4975091;28;20141;-72
2022/09/19 07:41:52;;;;;;;91.15;20.33;;;10.10;99.90;;;;;;4970234;28;20466;-72
2022/09/19 07:44:38;;;;;;;132.68;23.30;;;10.10;99.90;;;;;;5021881;23;20904;-71
2022/09/19 07:47:29;;;;;;;148.15;24.95;;;10.10;99.90;;;;;;5015774;28;20037;-72
2022/09/19 07:50:17;;;;;;;173.05;27.48;;;10.10;99.90;;;;;;5011256;28;20056;-71
2022/09/19 07:53:00;;;;;;;167.38;26.75;;;10.10;99.90;;;;;;4996294;28;20539;-71
2022/09/19 07:55:29;;;;;;;112.53;24.83;;;10.10;99.90;;;;;;5010582;28;20076;-72
2022/09/19 07:57:58;;;;;;;102.50;21.73;;;10.10;99.90;;;;;;5008728;28;20052;-72
2022/09/19 08:00:40;;;;;;;92.90;20.50;;;10.20;99.90;;;;;;5005915;28;20049;-72
2022/09/19 08:03:12;;;;;;;98.32;21.35;;;10.10;99.90;;;;;;5017659;28;20041;-71
2022/09/19 08:05:42;;;;;;;77.65;19.45;;;10.10;99.90;;;;;;5005764;28;20340;-72
2022/09/19 08:08:12;;;;;;;76.15;18.08;;;10.20;99.90;;;;;;5025247;28;20056;-71
2022/09/19 08:10:40;;;;;;;82.35;20.48;;;10.20;99.90;;;;;;5006572;28;20067;-72
2022/09/19 08:13:15;;;;;;;97.40;20.63;;;10.20;99.90;;;;;;5026933;28;20086;-72
2022/09/19 08:15:44;;;;;;;102.07;21.58;;;10.20;99.90;;;;;;5012988;28;20542;-72
2022/09/19 08:18:16;;;;;;;121.78;24.50;;;10.30;99.90;;;;;;4998559;28;20495;-72
2022/09/19 08:20:44;;;;;;;106.78;21.85;;;10.40;99.90;;;;;;5010771;28;20610;-72
2022/09/19 08:23:13;;;;;;;142.20;22.90;;;10.40;99.90;;;;;;5015202;28;20051;-72
2022/09/19 08:25:46;;;;;;;100.55;22.05;;;10.40;99.90;;;;;;5011215;28;20079;-72
2022/09/19 08:28:14;;;;;;;81.85;19.60;;;10.40;99.90;;;;;;5013037;28;20041;-71
2022/09/19 08:30:43;;;;;;;94.43;22.48;;;10.40;99.90;;;;;;5012018;28;20242;-71
2022/09/19 08:33:11;;;;;;;106.53;24.65;;;10.40;99.90;;;;;;5032982;28;20293;-71
2022/09/19 08:35:41;;;;;;;92.65;22.83;;;10.50;99.90;;;;;;5014516;28;20618;-71
2022/09/19 08:38:16;;;;;;;97.50;25.15;;;10.50;99.90;;;;;;5017745;28;20513;-71
2022/09/19 08:40:55;;;;;;;85.05;23.80;;;10.50;99.90;;;;;;5012768;28;20049;-72
2022/09/19 08:43:27;;;;;;;92.55;25.30;;;10.30;99.90;;;;;;5016594;28;20122;-71
2022/09/19 08:46:03;;;;;;;81.53;22.95;;;10.40;99.90;;;;;;5016732;28;20040;-71
2022/09/19 08:48:52;;;;;;;98.70;25.95;;;10.40;99.90;;;;;;4998712;28;20132;-71
2022/09/19 08:51:46;;;;;;;101.18;30.15;;;10.40;99.90;;;;;;5015358;28;20048;-70
2022/09/19 08:54:25;;;;;;;90.43;26.48;;;10.40;99.90;;;;;;5032522;28;20127;-71
2022/09/19 08:56:52;;;;;;;80.03;23.63;;;10.40;99.90;;;;;;5015704;28;20321;-71
2022/09/19 08:59:23;;;;;;;71.15;22.38;;;10.50;99.90;;;;;;5015274;28;20091;-70
2022/09/19 09:02:03;;;;;;;89.47;22.30;;;10.50;99.90;;;;;;5015691;28;20076;-72
2022/09/19 09:04:59;;;;;;;51.50;18.30;;;10.50;99.90;;;;;;5017500;28;20049;-71
2022/09/19 09:07:35;;;;;;;62.42;17.60;;;10.40;99.90;;;;;;5034186;28;20060;-71
2022/09/19 09:11:05;;;;;;;51.97;19.38;;;10.50;99.90;;;;;;4989262;28;20540;-71
2022/09/19 09:13:51;;;;;;;55.75;18.35;;;10.50;99.90;;;;;;4968893;28;20413;-71
2022/09/19 09:16:27;;;;;;;49.92;16.98;;;10.60;99.90;;;;;;4993484;28;20044;-72
2022/09/19 09:19:03;;;;;;;57.88;17.63;;;10.70;99.90;;;;;;5016314;28;20588;-71
2022/09/19 09:21:49;;;;;;;49.20;17.00;;;10.70;99.90;;;;;;5012325;28;20115;-71
2022/09/19 09:24:28;;;;;;;45.75;16.10;;;10.70;99.90;;;;;;5016401;28;20140;-72
2022/09/19 09:27:22;;;;;;;41.50;14.32;;;10.80;99.90;;;;;;5032818;28;20040;-71
2022/09/19 09:30:01;;;;;;;43.60;15.60;;;10.80;99.90;;;;;;5013692;28;20043;-72
2022/09/19 09:32:35;;;;;;;36.03;14.60;;;10.80;99.90;;;;;;4994518;28;20052;-72
2022/09/19 09:35:12;;;;;;;41.20;14.50;;;10.90;99.90;;;;;;5013254;28;20049;-72
2022/09/19 09:37:46;;;;;;;48.20;17.35;;;10.90;99.90;;;;;;5016125;28;20049;-71
2022/09/19 09:41:45;;;;;;;35.63;14.07;;;10.90;99.90;;;;;;5015560;28;20064;-70
2022/09/19 09:43:20;;;;;;;33.08;14.38;;;11.10;99.90;;;;;;5015614;28;20051;-71
2022/09/19 09:45:51;;;;;;;45.22;13.90;;;11.20;99.90;;;;;;5015250;28;20144;-73
2022/09/19 09:48:34;;;;;;;33.30;12.15;;;11.40;99.90;;;;;;5015878;28;20037;-72
2022/09/19 09:51:32;;;;;;;34.43;13.33;;;11.60;99.90;;;;;;5014427;28;20037;-71
2022/09/19 09:57:58;;;;;;;22.17;10.52;;;11.80;99.90;;;;;;5014347;28;20041;-71
2022/09/19 10:03:49;;;;;;;25.08;9.18;;;11.80;99.90;;;;;;5015939;28;20073;-70
2022/09/19 10:06:46;;;;;;;24.40;9.20;;;11.90;99.90;;;;;;4999555;28;20510;-71
2022/09/19 10:09:29;;;;;;;21.45;7.88;;;12.40;99.90;;;;;;5010625;28;20041;-71
2022/09/19 10:12:06;;;;;;;22.42;8.20;;;12.20;99.90;;;;;;5028481;28;20056;-71
2022/09/19 10:14:58;;;;;;;20.88;8.52;;;12.20;99.90;;;;;;5017854;28;20047;-71
2022/09/19 10:17:46;;;;;;;22.85;9.38;;;12.30;99.90;;;;;;5008068;28;20557;-71
2022/09/19 10:20:25;;;;;;;26.38;8.85;;;12.30;99.90;;;;;;5000487;28;20055;-71
2022/09/19 10:22:57;;;;;;;21.23;8.68;;;12.40;99.90;;;;;;4995974;28;20499;-71
2022/09/19 10:25:26;;;;;;;27.00;9.23;;;12.60;99.90;;;;;;5013919;28;20469;-71
2022/09/19 10:27:56;;;;;;;24.73;8.80;;;12.70;99.90;;;;;;5018330;28;20570;-71
2022/09/19 10:30:36;;;;;;;30.17;9.35;;;12.80;99.90;;;;;;5012713;28;20041;-71
2022/09/19 10:33:44;;;;;;;20.70;7.78;;;12.80;99.90;;;;;;5015718;28;20049;-71
2022/09/19 10:36:25;;;;;;;16.40;7.70;;;12.80;99.90;;;;;;5013303;28;20044;-71
2022/09/19 10:38:59;;;;;;;19.15;6.88;;;12.70;99.90;;;;;;5011777;28;20053;-71
2022/09/19 10:41:35;;;;;;;16.17;7.43;;;12.60;99.90;;;;;;5012894;28;20111;-71
2022/09/19 10:44:09;;;;;;;15.57;8.05;;;12.70;99.90;;;;;;4995008;28;20041;-71
2022/09/19 10:46:45;;;;;;;17.27;7.00;;;12.80;99.90;;;;;;5011333;28;20578;-71
2022/09/19 10:49:47;;;;;;;12.75;6.18;;;12.90;99.90;;;;;;4996045;28;20052;-71
2022/09/19 10:52:30;;;;;;;19.23;5.70;;;12.90;99.90;;;;;;5007605;28;20042;-71
2022/09/19 10:55:21;;;;;;;14.00;5.72;;;13.10;99.90;;;;;;5013798;28;20183;-71
2022/09/19 10:57:59;;;;;;;21.80;7.40;;;13.20;99.90;;;;;;4998553;28;20049;-71
2022/09/19 11:00:50;;;;;;;17.95;7.32;;;13.00;99.90;;;;;;5011893;28;20501;-72
2022/09/19 11:03:29;;;;;;;17.13;6.88;;;12.80;99.90;;;;;;5012305;28;20094;-71
2022/09/19 11:06:16;;;;;;;18.25;7.03;;;12.50;99.90;;;;;;5011382;28;20236;-72
2022/09/19 11:08:48;;;;;;;22.38;6.45;;;12.50;99.90;;;;;;4998325;28;20858;-72
2022/09/19 11:11:46;;;;;;;12.10;5.38;;;12.30;99.90;;;;;;5011175;28;20095;-72
2022/09/19 11:14:38;;;;;;;15.50;5.93;;;12.20;99.90;;;;;;4998857;28;20049;-72
2022/09/19 11:17:31;;;;;;;21.75;7.40;;;12.30;99.90;;;;;;5013143;28;20037;-72
2022/09/19 11:20:38;;;;;;;16.50;6.32;;;12.50;99.90;;;;;;5013333;28;20044;-72
2022/09/19 11:23:52;;;;;;;29.77;6.93;;;12.50;99.90;;;;;;5013161;28;20046;-71
2022/09/19 11:26:37;;;;;;;22.05;6.97;;;12.70;99.90;;;;;;5011821;28;20045;-70
2022/09/19 11:29:09;;;;;;;22.35;7.32;;;12.70;99.90;;;;;;5013907;28;20617;-70
2022/09/19 11:32:03;;;;;;;17.95;6.18;;;12.60;99.90;;;;;;4995434;28;20041;-70
2022/09/19 11:35:07;;;;;;;29.35;7.47;;;12.60;99.90;;;;;;5032086;28;20198;-71
2022/09/19 11:37:56;;;;;;;21.50;6.60;;;12.70;99.90;;;;;;5015591;28;20041;-71
2022/09/19 11:40:48;;;;;;;20.85;7.00;;;12.70;99.90;;;;;;4995592;28;20071;-71
2022/09/19 11:43:37;;;;;;;21.92;8.35;;;12.60;99.90;;;;;;5012853;28;20037;-71
2022/09/19 11:46:30;;;;;;;22.17;6.93;;;12.60;99.90;;;;;;5014310;28;20041;-70
2022/09/19 11:49:23;;;;;;;19.05;6.60;;;12.60;99.90;;;;;;5010688;28;20052;-70
2022/09/19 11:52:11;;;;;;;18.98;6.68;;;12.40;99.90;;;;;;4997302;28;20067;-70
2022/09/19 11:55:19;;;;;;;20.35;6.18;;;12.40;99.90;;;;;;5013146;28;20051;-70
2022/09/19 11:58:08;;;;;;;20.13;6.65;;;12.40;99.90;;;;;;4930811;28;20406;-71
2022/09/19 12:01:05;;;;;;;10.85;4.00;;;12.70;99.90;;;;;;4994534;28;20466;-71
2022/09/19 12:03:41;;;;;;;14.02;4.07;;;12.90;99.90;;;;;;5011989;28;20496;-70
2022/09/19 12:06:43;;;;;;;13.93;4.45;;;13.40;99.90;;;;;;5012521;28;20103;-71
2022/09/19 12:09:09;;;;;;;12.13;4.30;;;13.60;99.90;;;;;;4996953;28;20069;-72
2022/09/19 12:11:39;;;;;;;13.40;4.15;;;13.60;99.90;;;;;;4997323;28;20056;-72
2022/09/19 12:14:15;;;;;;;8.35;4.55;;;13.80;99.90;;;;;;5018454;28;20628;-72
2022/09/19 12:16:50;;;;;;;11.57;5.03;;;14.00;99.90;;;;;;5017986;28;20399;-72
2022/09/19 12:19:24;;;;;;;11.55;6.10;;;14.30;99.90;;;;;;5016722;28;20076;-71
2022/09/19 12:21:57;;;;;;;11.52;8.52;;;14.40;99.90;;;;;;5012440;28;20037;-71
2022/09/19 12:27:25;;;;;;;9.98;9.02;;;14.00;99.90;;;;;;5030287;28;20247;-71
2022/09/19 12:30:31;;;;;;;15.95;9.38;;;13.50;99.90;;;;;;5031925;28;20463;-72
2022/09/19 12:33:32;;;;;;;15.73;8.32;;;13.10;99.90;;;;;;4983671;28;20064;-70
2022/09/19 12:36:05;;;;;;;11.93;6.65;;;12.80;99.90;;;;;;5002179;28;20063;-70
2022/09/19 12:38:45;;;;;;;20.30;7.28;;;12.60;99.90;;;;;;4996140;28;20103;-70
2022/09/19 12:41:21;;;;;;;13.43;6.22;;;12.40;99.90;;;;;;5014666;28;20627;-70
2022/09/19 12:44:15;;;;;;;23.10;6.45;;;12.30;99.90;;;;;;5017947;28;20573;-70
2022/09/19 12:47:00;;;;;;;12.32;5.20;;;12.20;99.90;;;;;;5016459;28;20557;-71
2022/09/19 12:50:03;;;;;;;16.45;5.53;;;12.20;99.90;;;;;;5034693;28;20049;-70
2022/09/19 12:52:36;;;;;;;18.13;5.30;;;12.40;99.90;;;;;;5012266;28;20233;-71
2022/09/19 12:55:15;;;;;;;13.40;5.10;;;12.50;99.90;;;;;;4995729;28;20047;-71
2022/09/19 12:58:20;;;;;;;9.60;4.28;;;12.60;99.90;;;;;;5010193;28;20545;-71
2022/09/19 13:00:49;;;;;;;14.32;7.00;;;12.80;99.90;;;;;;5033160;28;20037;-70
2022/09/19 13:03:21;;;;;;;8.45;7.60;;;12.70;99.90;;;;;;5011537;28;20045;-71
2022/09/19 13:05:57;;;;;;;12.15;7.28;;;12.60;99.90;;;;;;5016436;28;20418;-70
2022/09/19 13:08:31;;;;;;;14.63;8.40;;;12.50;99.90;;;;;;5014703;28;20052;-71
2022/09/19 13:11:16;;;;;;;17.02;6.82;;;12.40;99.90;;;;;;5016016;28;20128;-70
2022/09/19 13:14:01;;;;;;;8.90;8.02;;;12.70;99.90;;;;;;5014900;28;20048;-71
2022/09/19 13:16:32;;;;;;;;;;;12.70;99.90;;;;;;5031618;28;20039;-70
2022/09/19 13:24:43;;;;;;;11.30;6.97;;;13.10;99.90;;;;;;5026378;28;20049;-70
2022/09/19 13:27:10;;;;;;;8.90;7.13;;;13.30;99.90;;;;;;5030852;28;20049;-70
2022/09/19 13:29:42;;;;;;;11.93;8.18;;;13.50;99.90;;;;;;5026432;28;20055;-71
2022/09/19 13:32:35;;;;;;;10.63;9.63;;;13.60;99.90;;;;;;5017158;28;20507;-71
2022/09/19 13:35:05;;;;;;;11.63;10.82;;;13.80;99.90;;;;;;5033484;28;20040;-71
2022/09/19 13:37:32;;;;;;;12.50;11.50;;;14.00;99.90;;;;;;5013658;28;20067;-71
2022/09/19 13:40:15;;;;;;;15.45;14.25;;;14.20;99.90;;;;;;5019025;28;20055;-71
2022/09/19 13:43:13;;;;;;;16.48;15.27;;;14.10;99.90;;;;;;5031406;28;20135;-71
2022/09/19 13:46:10;;;;;;;14.57;13.30;;;13.50;99.90;;;;;;5041615;22;20100;-80